SECU

Details ICAO SECU (CUE)
Name MARISCAL LAMAR
Region Equador
Timezone America/Guayaquil (UTC-5.0)
Plans Departing 44
Arriving 41
Stats Elevation 8,306 ft / 2,532 m (AMSL)
Location -2.889468° -78.984398°
Runways 1
Magnetic Variation 2.688° W
Sunrise 2018-05-24 11:15:03 UTC / 2018-05-24 06:15:03 Local
Sunset 2018-05-24 23:13:24 UTC / 2018-05-24 18:13:24 Local
Advertisement - Login to hide

Runways

ID Width Length Bearing (true) Bearing (mag) Surface Threshold Offset Overrun Length
05 118 ft / 36 m 6,240 ft / 1,902 m 51.98° 54.67° Asphalt 0 ft / 0 m 141 ft / 43 m
23 118 ft / 36 m 6,240 ft / 1,902 m 231.97° 234.66° Asphalt 0 ft / 0 m 0 ft / 0 m

Approach Navaids

Runway Type Ident Frequency Range Bearing (true) Bearing (mag) Slope Elevation
23 Localiser ILC 110.90 MHz 18 nm / 33 km 232.25° 234.94° - 8,284 ft / 2,525 m (AMSL)
23 Glidescope ILC 110.90 MHz 10 nm / 19 km 231.97° 234.66° 3.20° 8,284 ft / 2,525 m (AMSL)
23 DME ILC 110.90 MHz 18 nm / 33 km - - - 8,306 ft / 2,532 m (AMSL)

Map

Weather


0- 5 10 15 20 25 30 35+ Temperature / ° C

Clouds and Precipitation
Forecast for 2018-05-24 12:00 UTC. Updated an hour ago

Ground ~20,000 ft ~40,000 ft Winds

METAR

SECU 241000Z AUTO 00000KT ////NDV FEW014 BKN019 OVC065 13/13 Q1027

TAF

Not found

Frequencies

Ground 121.90 MHz GND
Tower 122.30 MHz APP/TWR
Warning: Do not use this data for real-world aviation or navigation. No guarantee of current accuracy is given.